sensor_id;sensor_type;location;lat;lon;timestamp;P1;durP1;ratioP1;P2;durP2;ratioP2
12467;SDS011;57850;52.922;6.256;2023-04-24T00:01:20;1.70;;;1.58;;
12467;SDS011;57850;52.922;6.256;2023-04-24T00:03:46;1.90;;;1.70;;
12467;SDS011;57850;52.922;6.256;2023-04-24T00:06:13;2.17;;;1.73;;
12467;SDS011;57850;52.922;6.256;2023-04-24T00:08:42;2.10;;;1.92;;
12467;SDS011;57850;52.922;6.256;2023-04-24T00:11:10;1.90;;;1.70;;
12467;SDS011;57850;52.922;6.256;2023-04-24T00:13:37;1.77;;;1.60;;
12467;SDS011;57850;52.922;6.256;2023-04-24T00:16:04;2.10;;;1.90;;
12467;SDS011;57850;52.922;6.256;2023-04-24T00:18:30;2.22;;;1.55;;
12467;SDS011;57850;52.922;6.256;2023-04-24T00:20:57;2.10;;;1.67;;
12467;SDS011;57850;52.922;6.256;2023-04-24T00:23:24;1.80;;;1.70;;
12467;SDS011;57850;52.922;6.256;2023-04-24T00:25:51;2.00;;;1.80;;
12467;SDS011;57850;52.922;6.256;2023-04-24T00:28:18;2.22;;;1.60;;
12467;SDS011;57850;52.922;6.256;2023-04-24T00:30:45;2.75;;;1.70;;
12467;SDS011;57850;52.922;6.256;2023-04-24T00:33:11;2.00;;;1.85;;
12467;SDS011;57850;52.922;6.256;2023-04-24T00:35:38;1.85;;;1.48;;
12467;SDS011;57850;52.922;6.256;2023-04-24T00:38:05;1.70;;;1.60;;
12467;SDS011;57850;52.922;6.256;2023-04-24T00:40:32;2.22;;;2.03;;
12467;SDS011;57850;52.922;6.256;2023-04-24T00:42:59;1.85;;;1.75;;
12467;SDS011;57850;52.922;6.256;2023-04-24T00:45:27;1.70;;;1.55;;
12467;SDS011;57850;52.922;6.256;2023-04-24T00:47:56;2.33;;;2.00;;
12467;SDS011;57850;52.922;6.256;2023-04-24T00:50:23;2.25;;;2.05;;
12467;SDS011;57850;52.922;6.256;2023-04-24T00:52:51;1.90;;;1.80;;
12467;SDS011;57850;52.922;6.256;2023-04-24T00:55:18;2.13;;;1.90;;
12467;SDS011;57850;52.922;6.256;2023-04-24T00:57:44;3.15;;;1.80;;
12467;SDS011;57850;52.922;6.256;2023-04-24T01:00:12;2.85;;;1.98;;
12467;SDS011;57850;52.922;6.256;2023-04-24T01:02:41;2.38;;;2.17;;
12467;SDS011;57850;52.922;6.256;2023-04-24T01:05:10;2.20;;;2.10;;
12467;SDS011;57850;52.922;6.256;2023-04-24T01:07:38;3.10;;;2.75;;
12467;SDS011;57850;52.922;6.256;2023-04-24T01:10:06;4.50;;;2.55;;
12467;SDS011;57850;52.922;6.256;2023-04-24T01:12:33;2.67;;;2.47;;
12467;SDS011;57850;52.922;6.256;2023-04-24T01:15:00;4.13;;;2.53;;
12467;SDS011;57850;52.922;6.256;2023-04-24T01:17:28;2.60;;;2.40;;
12467;SDS011;57850;52.922;6.256;2023-04-24T01:19:57;2.83;;;2.63;;
12467;SDS011;57850;52.922;6.256;2023-04-24T01:22:26;3.05;;;2.78;;
12467;SDS011;57850;52.922;6.256;2023-04-24T01:24:53;3.15;;;2.95;;
12467;SDS011;57850;52.922;6.256;2023-04-24T01:27:19;4.07;;;3.67;;
12467;SDS011;57850;52.922;6.256;2023-04-24T01:29:46;3.65;;;3.35;;
12467;SDS011;57850;52.922;6.256;2023-04-24T01:32:14;4.47;;;3.72;;
12467;SDS011;57850;52.922;6.256;2023-04-24T01:34:41;3.58;;;3.28;;
12467;SDS011;57850;52.922;6.256;2023-04-24T01:37:09;4.95;;;4.50;;
12467;SDS011;57850;52.922;6.256;2023-04-24T01:39:37;4.78;;;4.30;;
12467;SDS011;57850;52.922;6.256;2023-04-24T01:42:04;5.97;;;5.47;;
12467;SDS011;57850;52.922;6.256;2023-04-24T01:44:30;5.18;;;4.68;;
12467;SDS011;57850;52.922;6.256;2023-04-24T01:46:58;5.82;;;5.32;;
12467;SDS011;57850;52.922;6.256;2023-04-24T01:49:26;6.30;;;5.30;;
12467;SDS011;57850;52.922;6.256;2023-04-24T01:51:53;6.93;;;6.22;;
12467;SDS011;57850;52.922;6.256;2023-04-24T01:54:19;6.65;;;6.00;;
12467;SDS011;57850;52.922;6.256;2023-04-24T01:56:47;6.97;;;6.38;;
12467;SDS011;57850;52.922;6.256;2023-04-24T01:59:14;7.50;;;6.75;;
12467;SDS011;57850;52.922;6.256;2023-04-24T02:01:43;7.70;;;6.82;;
12467;SDS011;57850;52.922;6.256;2023-04-24T02:04:10;8.50;;;7.70;;
12467;SDS011;57850;52.922;6.256;2023-04-24T02:06:36;8.68;;;7.88;;
12467;SDS011;57850;52.922;6.256;2023-04-24T02:09:03;9.27;;;8.38;;
12467;SDS011;57850;52.922;6.256;2023-04-24T02:11:29;11.73;;;9.43;;
12467;SDS011;57850;52.922;6.256;2023-04-24T02:13:58;9.95;;;8.95;;
12467;SDS011;57850;52.922;6.256;2023-04-24T02:16:24;10.05;;;8.75;;
12467;SDS011;57850;52.922;6.256;2023-04-24T02:18:51;11.40;;;10.30;;
12467;SDS011;57850;52.922;6.256;2023-04-24T02:21:17;11.88;;;10.68;;
12467;SDS011;57850;52.922;6.256;2023-04-24T02:23:44;11.52;;;10.40;;
12467;SDS011;57850;52.922;6.256;2023-04-24T02:26:10;12.93;;;11.73;;
12467;SDS011;57850;52.922;6.256;2023-04-24T02:28:37;13.15;;;11.85;;
12467;SDS011;57850;52.922;6.256;2023-04-24T02:31:05;12.93;;;11.70;;
12467;SDS011;57850;52.922;6.256;2023-04-24T02:33:32;13.15;;;11.95;;
12467;SDS011;57850;52.922;6.256;2023-04-24T02:35:58;12.32;;;11.13;;
12467;SDS011;57850;52.922;6.256;2023-04-24T02:38:25;13.05;;;11.65;;
12467;SDS011;57850;52.922;6.256;2023-04-24T02:40:51;12.13;;;10.52;;
12467;SDS011;57850;52.922;6.256;2023-04-24T02:43:20;12.50;;;11.32;;
12467;SDS011;57850;52.922;6.256;2023-04-24T02:45:50;12.00;;;10.70;;
12467;SDS011;57850;52.922;6.256;2023-04-24T02:48:19;11.57;;;10.48;;
12467;SDS011;57850;52.922;6.256;2023-04-24T02:50:46;11.32;;;10.32;;
12467;SDS011;57850;52.922;6.256;2023-04-24T02:53:13;10.35;;;9.40;;
12467;SDS011;57850;52.922;6.256;2023-04-24T02:55:40;10.75;;;9.75;;
12467;SDS011;57850;52.922;6.256;2023-04-24T02:58:06;10.43;;;9.52;;
12467;SDS011;57850;52.922;6.256;2023-04-24T03:00:33;10.43;;;9.43;;
12467;SDS011;57850;52.922;6.256;2023-04-24T03:03:00;9.70;;;8.80;;
12467;SDS011;57850;52.922;6.256;2023-04-24T03:05:29;10.02;;;9.13;;
12467;SDS011;57850;52.922;6.256;2023-04-24T03:07:56;11.00;;;8.27;;
12467;SDS011;57850;52.922;6.256;2023-04-24T03:10:22;9.50;;;8.60;;
12467;SDS011;57850;52.922;6.256;2023-04-24T03:12:49;8.82;;;7.90;;
12467;SDS011;57850;52.922;6.256;2023-04-24T03:15:16;8.23;;;7.53;;
12467;SDS011;57850;52.922;6.256;2023-04-24T03:17:42;8.32;;;7.30;;
12467;SDS011;57850;52.922;6.256;2023-04-24T03:20:09;7.80;;;6.95;;
12467;SDS011;57850;52.922;6.256;2023-04-24T03:22:37;8.20;;;7.40;;
12467;SDS011;57850;52.922;6.256;2023-04-24T03:25:04;7.95;;;7.15;;
12467;SDS011;57850;52.922;6.256;2023-04-24T03:27:33;7.85;;;7.15;;
12467;SDS011;57850;52.922;6.256;2023-04-24T03:29:59;7.93;;;7.13;;
12467;SDS011;57850;52.922;6.256;2023-04-24T03:32:26;8.27;;;7.53;;
12467;SDS011;57850;52.922;6.256;2023-04-24T03:34:53;7.47;;;6.78;;
12467;SDS011;57850;52.922;6.256;2023-04-24T03:37:19;8.30;;;7.50;;
12467;SDS011;57850;52.922;6.256;2023-04-24T03:39:47;7.55;;;6.85;;
12467;SDS011;57850;52.922;6.256;2023-04-24T03:42:14;7.60;;;6.90;;
12467;SDS011;57850;52.922;6.256;2023-04-24T03:44:40;7.82;;;7.07;;
12467;SDS011;57850;52.922;6.256;2023-04-24T03:47:07;8.23;;;7.35;;
12467;SDS011;57850;52.922;6.256;2023-04-24T03:49:33;8.52;;;7.40;;
12467;SDS011;57850;52.922;6.256;2023-04-24T03:52:00;8.10;;;7.30;;
12467;SDS011;57850;52.922;6.256;2023-04-24T03:54:27;10.05;;;7.85;;
12467;SDS011;57850;52.922;6.256;2023-04-24T03:56:55;9.40;;;8.35;;
12467;SDS011;57850;52.922;6.256;2023-04-24T03:59:22;8.13;;;7.32;;
12467;SDS011;57850;52.922;6.256;2023-04-24T04:01:48;9.68;;;7.85;;
12467;SDS011;57850;52.922;6.256;2023-04-24T04:04:16;9.05;;;8.15;;
12467;SDS011;57850;52.922;6.256;2023-04-24T04:06:42;9.15;;;8.15;;
12467;SDS011;57850;52.922;6.256;2023-04-24T04:09:09;13.30;;;7.63;;
12467;SDS011;57850;52.922;6.256;2023-04-24T04:11:36;10.07;;;7.70;;
12467;SDS011;57850;52.922;6.256;2023-04-24T04:14:04;9.32;;;7.00;;
12467;SDS011;57850;52.922;6.256;2023-04-24T04:18:58;9.60;;;7.57;;
12467;SDS011;57850;52.922;6.256;2023-04-24T04:21:24;8.20;;;7.40;;
12467;SDS011;57850;52.922;6.256;2023-04-24T04:23:52;7.72;;;7.03;;
12467;SDS011;57850;52.922;6.256;2023-04-24T04:26:18;7.93;;;7.13;;
12467;SDS011;57850;52.922;6.256;2023-04-24T04:28:46;8.63;;;7.38;;
12467;SDS011;57850;52.922;6.256;2023-04-24T04:31:15;7.85;;;7.07;;
12467;SDS011;57850;52.922;6.256;2023-04-24T04:33:41;9.15;;;8.25;;
12467;SDS011;57850;52.922;6.256;2023-04-24T04:36:08;8.82;;;7.93;;
12467;SDS011;57850;52.922;6.256;2023-04-24T04:38:35;9.00;;;8.13;;
12467;SDS011;57850;52.922;6.256;2023-04-24T04:41:02;9.13;;;8.02;;
12467;SDS011;57850;52.922;6.256;2023-04-24T04:43:28;9.52;;;8.60;;
12467;SDS011;57850;52.922;6.256;2023-04-24T04:45:56;7.00;;;6.30;;
12467;SDS011;57850;52.922;6.256;2023-04-24T04:48:25;7.07;;;6.38;;
12467;SDS011;57850;52.922;6.256;2023-04-24T04:50:52;6.35;;;5.40;;
12467;SDS011;57850;52.922;6.256;2023-04-24T04:53:18;5.50;;;5.00;;
12467;SDS011;57850;52.922;6.256;2023-04-24T04:55:45;4.57;;;4.18;;
12467;SDS011;57850;52.922;6.256;2023-04-24T04:58:12;4.10;;;3.70;;
12467;SDS011;57850;52.922;6.256;2023-04-24T05:00:39;6.63;;;4.35;;
12467;SDS011;57850;52.922;6.256;2023-04-24T05:03:06;6.80;;;4.95;;
12467;SDS011;57850;52.922;6.256;2023-04-24T05:05:34;3.65;;;3.13;;
12467;SDS011;57850;52.922;6.256;2023-04-24T05:08:05;8.13;;;6.38;;
12467;SDS011;57850;52.922;6.256;2023-04-24T05:10:32;3.83;;;3.53;;
12467;SDS011;57850;52.922;6.256;2023-04-24T05:12:58;4.07;;;3.72;;
12467;SDS011;57850;52.922;6.256;2023-04-24T05:15:25;3.42;;;3.13;;
12467;SDS011;57850;52.922;6.256;2023-04-24T05:17:52;4.13;;;3.72;;
12467;SDS011;57850;52.922;6.256;2023-04-24T05:20:19;5.03;;;4.60;;
12467;SDS011;57850;52.922;6.256;2023-04-24T05:22:46;4.18;;;3.78;;
12467;SDS011;57850;52.922;6.256;2023-04-24T05:25:13;4.13;;;3.70;;
12467;SDS011;57850;52.922;6.256;2023-04-24T05:27:40;5.68;;;4.90;;
12467;SDS011;57850;52.922;6.256;2023-04-24T05:30:07;5.45;;;4.93;;
12467;SDS011;57850;52.922;6.256;2023-04-24T05:32:34;6.20;;;5.60;;
12467;SDS011;57850;52.922;6.256;2023-04-24T05:35:01;6.20;;;5.53;;
12467;SDS011;57850;52.922;6.256;2023-04-24T05:37:27;6.50;;;5.10;;
12467;SDS011;57850;52.922;6.256;2023-04-24T05:39:55;5.57;;;5.07;;
12467;SDS011;57850;52.922;6.256;2023-04-24T05:42:22;5.90;;;5.18;;
12467;SDS011;57850;52.922;6.256;2023-04-24T05:44:48;5.68;;;5.05;;
12467;SDS011;57850;52.922;6.256;2023-04-24T05:47:14;7.22;;;5.32;;
12467;SDS011;57850;52.922;6.256;2023-04-24T05:49:41;6.00;;;5.38;;
12467;SDS011;57850;52.922;6.256;2023-04-24T05:52:07;5.28;;;4.43;;
12467;SDS011;57850;52.922;6.256;2023-04-24T05:54:34;7.28;;;5.22;;
12467;SDS011;57850;52.922;6.256;2023-04-24T05:57:02;5.45;;;4.90;;
12467;SDS011;57850;52.922;6.256;2023-04-24T05:59:32;7.75;;;5.47;;
12467;SDS011;57850;52.922;6.256;2023-04-24T06:01:59;6.22;;;5.50;;
12467;SDS011;57850;52.922;6.256;2023-04-24T06:04:25;6.80;;;5.38;;
12467;SDS011;57850;52.922;6.256;2023-04-24T06:06:52;6.05;;;5.45;;
12467;SDS011;57850;52.922;6.256;2023-04-24T06:09:21;5.50;;;4.90;;
12467;SDS011;57850;52.922;6.256;2023-04-24T06:11:47;6.32;;;5.72;;
12467;SDS011;57850;52.922;6.256;2023-04-24T06:14:15;9.60;;;5.80;;
12467;SDS011;57850;52.922;6.256;2023-04-24T06:16:42;7.45;;;5.20;;
12467;SDS011;57850;52.922;6.256;2023-04-24T06:19:09;8.63;;;6.22;;
12467;SDS011;57850;52.922;6.256;2023-04-24T06:21:36;10.38;;;5.63;;
12467;SDS011;57850;52.922;6.256;2023-04-24T06:24:02;7.68;;;5.78;;
12467;SDS011;57850;52.922;6.256;2023-04-24T06:26:29;5.78;;;5.05;;
12467;SDS011;57850;52.922;6.256;2023-04-24T06:28:56;6.60;;;5.15;;
12467;SDS011;57850;52.922;6.256;2023-04-24T06:31:25;9.43;;;4.50;;
12467;SDS011;57850;52.922;6.256;2023-04-24T06:33:51;6.72;;;4.53;;
12467;SDS011;57850;52.922;6.256;2023-04-24T06:36:18;4.57;;;4.05;;
12467;SDS011;57850;52.922;6.256;2023-04-24T06:38:44;7.43;;;3.80;;
12467;SDS011;57850;52.922;6.256;2023-04-24T06:41:11;4.65;;;3.47;;
12467;SDS011;57850;52.922;6.256;2023-04-24T06:43:38;5.10;;;3.67;;
12467;SDS011;57850;52.922;6.256;2023-04-24T06:46:04;5.90;;;3.30;;
12467;SDS011;57850;52.922;6.256;2023-04-24T06:48:32;3.20;;;2.90;;
12467;SDS011;57850;52.922;6.256;2023-04-24T06:50:58;3.80;;;3.22;;
12467;SDS011;57850;52.922;6.256;2023-04-24T06:53:25;4.07;;;3.10;;
12467;SDS011;57850;52.922;6.256;2023-04-24T06:55:52;4.45;;;3.00;;
12467;SDS011;57850;52.922;6.256;2023-04-24T06:58:19;6.97;;;2.83;;
12467;SDS011;57850;52.922;6.256;2023-04-24T07:00:45;3.85;;;3.40;;
12467;SDS011;57850;52.922;6.256;2023-04-24T07:03:12;3.17;;;2.72;;
12467;SDS011;57850;52.922;6.256;2023-04-24T07:05:39;3.90;;;2.78;;
12467;SDS011;57850;52.922;6.256;2023-04-24T07:08:06;3.15;;;2.63;;
12467;SDS011;57850;52.922;6.256;2023-04-24T07:10:33;3.80;;;2.50;;
12467;SDS011;57850;52.922;6.256;2023-04-24T07:13:00;4.57;;;2.55;;
12467;SDS011;57850;52.922;6.256;2023-04-24T07:15:27;6.22;;;2.95;;
12467;SDS011;57850;52.922;6.256;2023-04-24T07:17:53;5.85;;;2.65;;
12467;SDS011;57850;52.922;6.256;2023-04-24T07:20:20;6.05;;;2.65;;
12467;SDS011;57850;52.922;6.256;2023-04-24T07:22:48;4.47;;;2.58;;
12467;SDS011;57850;52.922;6.256;2023-04-24T07:25:16;5.97;;;2.85;;
12467;SDS011;57850;52.922;6.256;2023-04-24T07:27:43;5.40;;;3.28;;
12467;SDS011;57850;52.922;6.256;2023-04-24T07:30:10;6.20;;;3.00;;
12467;SDS011;57850;52.922;6.256;2023-04-24T07:32:37;4.05;;;3.20;;
12467;SDS011;57850;52.922;6.256;2023-04-24T07:35:04;6.38;;;2.70;;
12467;SDS011;57850;52.922;6.256;2023-04-24T07:37:31;7.82;;;3.60;;
12467;SDS011;57850;52.922;6.256;2023-04-24T07:39:59;6.07;;;3.83;;
12467;SDS011;57850;52.922;6.256;2023-04-24T07:42:25;5.28;;;3.55;;
12467;SDS011;57850;52.922;6.256;2023-04-24T07:44:52;9.35;;;4.32;;
12467;SDS011;57850;52.922;6.256;2023-04-24T07:47:18;7.07;;;4.65;;
12467;SDS011;57850;52.922;6.256;2023-04-24T07:49:45;11.07;;;5.10;;
12467;SDS011;57850;52.922;6.256;2023-04-24T07:52:11;8.85;;;5.28;;
12467;SDS011;57850;52.922;6.256;2023-04-24T07:54:38;11.40;;;5.90;;
12467;SDS011;57850;52.922;6.256;2023-04-24T07:57:06;14.98;;;8.52;;
12467;SDS011;57850;52.922;6.256;2023-04-24T07:59:33;19.30;;;9.38;;
12467;SDS011;57850;52.922;6.256;2023-04-24T08:01:59;13.13;;;9.30;;
12467;SDS011;57850;52.922;6.256;2023-04-24T08:04:26;20.05;;;10.48;;
12467;SDS011;57850;52.922;6.256;2023-04-24T08:06:53;13.88;;;9.77;;
12467;SDS011;57850;52.922;6.256;2023-04-24T08:09:20;14.27;;;8.85;;
12467;SDS011;57850;52.922;6.256;2023-04-24T08:11:46;13.73;;;10.13;;
12467;SDS011;57850;52.922;6.256;2023-04-24T08:14:14;16.70;;;9.68;;
12467;SDS011;57850;52.922;6.256;2023-04-24T08:16:40;14.73;;;9.20;;
12467;SDS011;57850;52.922;6.256;2023-04-24T08:19:07;15.73;;;10.63;;
12467;SDS011;57850;52.922;6.256;2023-04-24T08:21:34;15.82;;;10.48;;
12467;SDS011;57850;52.922;6.256;2023-04-24T08:24:00;20.58;;;11.77;;
12467;SDS011;57850;52.922;6.256;2023-04-24T08:26:30;18.35;;;11.27;;
12467;SDS011;57850;52.922;6.256;2023-04-24T08:28:56;19.60;;;12.93;;
12467;SDS011;57850;52.922;6.256;2023-04-24T08:31:24;24.13;;;13.35;;
12467;SDS011;57850;52.922;6.256;2023-04-24T08:33:51;20.90;;;13.27;;
12467;SDS011;57850;52.922;6.256;2023-04-24T08:36:17;23.58;;;14.43;;
12467;SDS011;57850;52.922;6.256;2023-04-24T08:38:44;22.30;;;13.48;;
12467;SDS011;57850;52.922;6.256;2023-04-24T08:41:11;21.88;;;13.23;;
12467;SDS011;57850;52.922;6.256;2023-04-24T08:43:41;21.95;;;12.90;;
12467;SDS011;57850;52.922;6.256;2023-04-24T08:46:08;17.17;;;12.00;;
12467;SDS011;57850;52.922;6.256;2023-04-24T08:48:38;19.52;;;12.35;;
12467;SDS011;57850;52.922;6.256;2023-04-24T08:51:05;13.90;;;10.55;;
12467;SDS011;57850;52.922;6.256;2023-04-24T08:53:33;15.73;;;10.00;;
12467;SDS011;57850;52.922;6.256;2023-04-24T08:56:01;14.27;;;8.98;;
12467;SDS011;57850;52.922;6.256;2023-04-24T08:58:28;12.15;;;9.10;;
12467;SDS011;57850;52.922;6.256;2023-04-24T09:00:55;14.73;;;9.02;;
12467;SDS011;57850;52.922;6.256;2023-04-24T09:03:23;10.52;;;8.10;;
12467;SDS011;57850;52.922;6.256;2023-04-24T09:05:51;10.13;;;8.20;;
12467;SDS011;57850;52.922;6.256;2023-04-24T09:08:21;11.95;;;7.72;;
12467;SDS011;57850;52.922;6.256;2023-04-24T09:10:50;13.43;;;7.68;;
12467;SDS011;57850;52.922;6.256;2023-04-24T09:13:17;11.20;;;7.13;;
12467;SDS011;57850;52.922;6.256;2023-04-24T09:15:45;10.68;;;7.78;;
12467;SDS011;57850;52.922;6.256;2023-04-24T09:18:12;11.65;;;7.68;;
12467;SDS011;57850;52.922;6.256;2023-04-24T09:23:26;15.70;;;7.47;;
12467;SDS011;57850;52.922;6.256;2023-04-24T09:25:54;14.50;;;7.53;;
12467;SDS011;57850;52.922;6.256;2023-04-24T09:28:23;12.40;;;7.00;;
12467;SDS011;57850;52.922;6.256;2023-04-24T09:31:01;16.88;;;6.50;;
12467;SDS011;57850;52.922;6.256;2023-04-24T09:33:32;15.07;;;7.70;;
12467;SDS011;57850;52.922;6.256;2023-04-24T09:36:00;9.27;;;5.95;;
12467;SDS011;57850;52.922;6.256;2023-04-24T09:38:31;11.23;;;5.95;;
12467;SDS011;57850;52.922;6.256;2023-04-24T09:40:59;11.98;;;6.03;;
12467;SDS011;57850;52.922;6.256;2023-04-24T09:43:27;9.77;;;5.68;;
12467;SDS011;57850;52.922;6.256;2023-04-24T09:45:55;12.40;;;5.20;;
12467;SDS011;57850;52.922;6.256;2023-04-24T09:48:29;7.32;;;4.70;;
12467;SDS011;57850;52.922;6.256;2023-04-24T09:50:56;7.45;;;4.10;;
12467;SDS011;57850;52.922;6.256;2023-04-24T09:53:25;12.93;;;4.45;;
12467;SDS011;57850;52.922;6.256;2023-04-24T09:55:52;8.70;;;4.25;;
12467;SDS011;57850;52.922;6.256;2023-04-24T09:58:18;8.45;;;4.55;;
12467;SDS011;57850;52.922;6.256;2023-04-24T10:00:53;9.75;;;4.20;;
12467;SDS011;57850;52.922;6.256;2023-04-24T10:03:23;11.27;;;3.92;;
12467;SDS011;57850;52.922;6.256;2023-04-24T10:05:52;11.85;;;4.50;;
12467;SDS011;57850;52.922;6.256;2023-04-24T10:08:19;11.63;;;4.22;;
12467;SDS011;57850;52.922;6.256;2023-04-24T10:10:48;12.98;;;4.72;;
12467;SDS011;57850;52.922;6.256;2023-04-24T10:13:14;13.48;;;4.43;;
12467;SDS011;57850;52.922;6.256;2023-04-24T10:15:41;14.02;;;4.70;;
12467;SDS011;57850;52.922;6.256;2023-04-24T10:18:08;14.07;;;3.55;;
12467;SDS011;57850;52.922;6.256;2023-04-24T10:20:36;8.93;;;3.40;;
12467;SDS011;57850;52.922;6.256;2023-04-24T10:23:05;11.57;;;4.18;;
12467;SDS011;57850;52.922;6.256;2023-04-24T10:25:32;16.67;;;4.30;;
12467;SDS011;57850;52.922;6.256;2023-04-24T10:28:02;11.70;;;3.55;;
12467;SDS011;57850;52.922;6.256;2023-04-24T10:30:29;9.50;;;3.97;;
12467;SDS011;57850;52.922;6.256;2023-04-24T10:33:00;9.07;;;2.97;;
12467;SDS011;57850;52.922;6.256;2023-04-24T10:35:27;12.32;;;3.72;;
12467;SDS011;57850;52.922;6.256;2023-04-24T10:37:57;11.35;;;3.45;;
12467;SDS011;57850;52.922;6.256;2023-04-24T10:40:29;7.95;;;3.35;;
12467;SDS011;57850;52.922;6.256;2023-04-24T10:42:57;8.95;;;3.20;;
12467;SDS011;57850;52.922;6.256;2023-04-24T10:45:26;9.55;;;4.38;;
12467;SDS011;57850;52.922;6.256;2023-04-24T10:47:53;8.25;;;3.83;;
12467;SDS011;57850;52.922;6.256;2023-04-24T10:50:23;9.18;;;3.30;;
12467;SDS011;57850;52.922;6.256;2023-04-24T10:52:51;7.85;;;3.20;;
12467;SDS011;57850;52.922;6.256;2023-04-24T10:58:08;9.63;;;3.10;;
12467;SDS011;57850;52.922;6.256;2023-04-24T11:00:37;8.18;;;3.28;;
12467;SDS011;57850;52.922;6.256;2023-04-24T11:03:05;7.00;;;3.13;;
12467;SDS011;57850;52.922;6.256;2023-04-24T11:05:51;15.13;;;3.13;;
12467;SDS011;57850;52.922;6.256;2023-04-24T11:08:26;11.52;;;3.28;;
12467;SDS011;57850;52.922;6.256;2023-04-24T11:10:55;10.80;;;3.10;;
12467;SDS011;57850;52.922;6.256;2023-04-24T11:13:24;9.27;;;3.03;;
12467;SDS011;57850;52.922;6.256;2023-04-24T11:16:15;9.88;;;2.92;;
12467;SDS011;57850;52.922;6.256;2023-04-24T11:18:50;9.05;;;2.83;;
12467;SDS011;57850;52.922;6.256;2023-04-24T11:21:19;10.52;;;2.83;;
12467;SDS011;57850;52.922;6.256;2023-04-24T11:23:46;7.03;;;2.33;;
12467;SDS011;57850;52.922;6.256;2023-04-24T11:26:17;5.97;;;2.35;;
12467;SDS011;57850;52.922;6.256;2023-04-24T11:28:45;6.40;;;2.50;;
12467;SDS011;57850;52.922;6.256;2023-04-24T11:34:07;8.05;;;2.60;;
12467;SDS011;57850;52.922;6.256;2023-04-24T11:36:34;9.77;;;2.28;;
12467;SDS011;57850;52.922;6.256;2023-04-24T11:39:02;7.43;;;2.35;;
12467;SDS011;57850;52.922;6.256;2023-04-24T11:41:28;6.13;;;2.40;;
12467;SDS011;57850;52.922;6.256;2023-04-24T11:43:55;9.30;;;2.65;;
12467;SDS011;57850;52.922;6.256;2023-04-24T11:46:22;5.70;;;2.08;;
12467;SDS011;57850;52.922;6.256;2023-04-24T11:48:53;12.60;;;2.42;;
12467;SDS011;57850;52.922;6.256;2023-04-24T11:51:20;6.40;;;2.70;;
12467;SDS011;57850;52.922;6.256;2023-04-24T11:53:48;5.07;;;1.95;;
12467;SDS011;57850;52.922;6.256;2023-04-24T11:56:17;6.28;;;2.28;;
12467;SDS011;57850;52.922;6.256;2023-04-24T11:58:45;8.60;;;2.05;;
12467;SDS011;57850;52.922;6.256;2023-04-24T12:01:11;4.68;;;2.13;;
12467;SDS011;57850;52.922;6.256;2023-04-24T12:03:38;5.05;;;1.70;;
12467;SDS011;57850;52.922;6.256;2023-04-24T12:06:06;4.50;;;1.60;;
12467;SDS011;57850;52.922;6.256;2023-04-24T12:08:33;3.28;;;1.08;;
12467;SDS011;57850;52.922;6.256;2023-04-24T12:11:00;3.92;;;1.40;;
12467;SDS011;57850;52.922;6.256;2023-04-24T12:13:27;3.92;;;1.85;;
12467;SDS011;57850;52.922;6.256;2023-04-24T12:15:54;6.20;;;1.50;;
12467;SDS011;57850;52.922;6.256;2023-04-24T12:18:21;2.90;;;1.30;;
12467;SDS011;57850;52.922;6.256;2023-04-24T12:20:48;5.57;;;1.65;;
12467;SDS011;57850;52.922;6.256;2023-04-24T12:23:16;4.90;;;1.10;;
12467;SDS011;57850;52.922;6.256;2023-04-24T12:25:44;3.13;;;1.10;;
12467;SDS011;57850;52.922;6.256;2023-04-24T12:28:11;3.55;;;1.50;;
12467;SDS011;57850;52.922;6.256;2023-04-24T12:30:39;3.90;;;1.40;;
12467;SDS011;57850;52.922;6.256;2023-04-24T12:33:07;5.30;;;1.35;;
12467;SDS011;57850;52.922;6.256;2023-04-24T12:35:34;4.63;;;1.48;;
12467;SDS011;57850;52.922;6.256;2023-04-24T12:38:06;2.35;;;1.40;;
12467;SDS011;57850;52.922;6.256;2023-04-24T12:40:35;4.70;;;1.45;;
12467;SDS011;57850;52.922;6.256;2023-04-24T12:43:02;4.13;;;1.58;;
12467;SDS011;57850;52.922;6.256;2023-04-24T12:45:38;4.03;;;1.20;;
12467;SDS011;57850;52.922;6.256;2023-04-24T12:48:05;3.22;;;1.60;;
12467;SDS011;57850;52.922;6.256;2023-04-24T12:50:31;3.95;;;1.20;;
12467;SDS011;57850;52.922;6.256;2023-04-24T12:52:58;3.20;;;1.58;;
12467;SDS011;57850;52.922;6.256;2023-04-24T12:55:24;5.45;;;1.30;;
12467;SDS011;57850;52.922;6.256;2023-04-24T12:57:52;5.40;;;1.60;;
12467;SDS011;57850;52.922;6.256;2023-04-24T13:00:20;4.25;;;1.77;;
12467;SDS011;57850;52.922;6.256;2023-04-24T13:02:47;3.42;;;1.50;;
12467;SDS011;57850;52.922;6.256;2023-04-24T13:05:14;4.15;;;1.50;;
12467;SDS011;57850;52.922;6.256;2023-04-24T13:07:40;6.05;;;1.23;;
12467;SDS011;57850;52.922;6.256;2023-04-24T13:10:07;3.53;;;1.20;;
12467;SDS011;57850;52.922;6.256;2023-04-24T13:12:34;3.80;;;1.15;;
12467;SDS011;57850;52.922;6.256;2023-04-24T13:15:03;2.80;;;1.42;;
12467;SDS011;57850;52.922;6.256;2023-04-24T13:17:30;6.70;;;1.42;;
12467;SDS011;57850;52.922;6.256;2023-04-24T13:19:57;6.32;;;1.88;;
12467;SDS011;57850;52.922;6.256;2023-04-24T13:22:23;6.70;;;1.75;;
12467;SDS011;57850;52.922;6.256;2023-04-24T13:24:50;3.90;;;1.50;;
12467;SDS011;57850;52.922;6.256;2023-04-24T13:27:16;8.98;;;1.65;;
12467;SDS011;57850;52.922;6.256;2023-04-24T13:29:44;4.70;;;1.67;;
12467;SDS011;57850;52.922;6.256;2023-04-24T13:32:12;7.38;;;1.52;;
12467;SDS011;57850;52.922;6.256;2023-04-24T13:34:39;5.00;;;1.58;;
12467;SDS011;57850;52.922;6.256;2023-04-24T13:37:06;3.20;;;1.35;;
12467;SDS011;57850;52.922;6.256;2023-04-24T13:39:33;5.75;;;1.65;;
12467;SDS011;57850;52.922;6.256;2023-04-24T13:42:00;5.47;;;1.35;;
12467;SDS011;57850;52.922;6.256;2023-04-24T13:44:26;7.30;;;2.03;;
12467;SDS011;57850;52.922;6.256;2023-04-24T13:46:53;6.65;;;1.90;;
12467;SDS011;57850;52.922;6.256;2023-04-24T13:49:23;4.13;;;1.98;;
12467;SDS011;57850;52.922;6.256;2023-04-24T13:51:51;6.72;;;1.83;;
12467;SDS011;57850;52.922;6.256;2023-04-24T13:54:18;8.77;;;2.78;;
12467;SDS011;57850;52.922;6.256;2023-04-24T13:56:45;10.05;;;2.58;;
12467;SDS011;57850;52.922;6.256;2023-04-24T13:59:12;10.35;;;2.90;;
12467;SDS011;57850;52.922;6.256;2023-04-24T14:01:38;7.60;;;2.20;;
12467;SDS011;57850;52.922;6.256;2023-04-24T14:04:05;8.13;;;1.70;;
12467;SDS011;57850;52.922;6.256;2023-04-24T14:06:33;5.35;;;1.77;;
12467;SDS011;57850;52.922;6.256;2023-04-24T14:08:59;11.82;;;1.80;;
12467;SDS011;57850;52.922;6.256;2023-04-24T14:11:26;6.88;;;2.17;;
12467;SDS011;57850;52.922;6.256;2023-04-24T14:13:53;8.70;;;2.40;;
12467;SDS011;57850;52.922;6.256;2023-04-24T14:16:21;11.45;;;2.85;;
12467;SDS011;57850;52.922;6.256;2023-04-24T14:18:47;5.85;;;2.38;;
12467;SDS011;57850;52.922;6.256;2023-04-24T14:21:15;7.53;;;2.38;;
12467;SDS011;57850;52.922;6.256;2023-04-24T14:23:43;10.90;;;2.45;;
12467;SDS011;57850;52.922;6.256;2023-04-24T14:26:09;11.20;;;2.47;;
12467;SDS011;57850;52.922;6.256;2023-04-24T14:28:36;13.18;;;2.55;;
12467;SDS011;57850;52.922;6.256;2023-04-24T14:31:02;8.25;;;2.35;;
12467;SDS011;57850;52.922;6.256;2023-04-24T14:33:28;9.32;;;2.08;;
12467;SDS011;57850;52.922;6.256;2023-04-24T14:35:55;12.02;;;2.40;;
12467;SDS011;57850;52.922;6.256;2023-04-24T14:38:22;6.72;;;2.13;;
12467;SDS011;57850;52.922;6.256;2023-04-24T14:40:50;5.53;;;2.45;;
12467;SDS011;57850;52.922;6.256;2023-04-24T14:43:16;8.40;;;2.40;;
12467;SDS011;57850;52.922;6.256;2023-04-24T14:45:43;7.70;;;2.10;;
12467;SDS011;57850;52.922;6.256;2023-04-24T14:48:10;8.40;;;2.53;;
12467;SDS011;57850;52.922;6.256;2023-04-24T14:50:37;9.90;;;2.70;;
12467;SDS011;57850;52.922;6.256;2023-04-24T14:53:03;9.98;;;3.47;;
12467;SDS011;57850;52.922;6.256;2023-04-24T14:55:30;12.85;;;3.90;;